Time;durP1;ratioP1;P1;durP2;ratioP2;P2;SDS_P1;SDS_P2;PMS_P1;PMS_P2;Temp;Humidity;BMP_temperature;BMP_pressure;BME280_temperature;BME280_humidity;BME280_pressure;Samples;Min_cycle;Max_cycle;Signal;HPM_P1;HPM_P2
2023/04/12 04:00:33;;;;;;;3.03;1.50;;;9.40;86.50;;;;;;5993271;23;21257;-73
2023/04/12 04:03:01;;;;;;;2.17;1.13;;;8.90;87.90;;;;;;4974417;28;20470;-73
2023/04/12 04:05:28;;;;;;;2.40;1.43;;;8.80;89.20;;;;;;4974373;28;20454;-73
2023/04/12 04:07:59;;;;;;;2.47;1.57;;;8.60;89.50;;;;;;4974047;28;20973;-72
2023/04/12 04:10:26;;;;;;;2.30;1.10;;;8.50;90.20;;;;;;4974368;28;20434;-74
2023/04/12 04:12:52;;;;;;;2.67;1.50;;;8.60;90.80;;;;;;4975107;28;20450;-74
2023/04/12 04:15:19;;;;;;;2.80;1.40;;;8.80;90.50;;;;;;4974867;28;20449;-74
2023/04/12 04:17:48;;;;;;;2.43;1.43;;;9.10;89.30;;;;;;4974307;28;20450;-74
2023/04/12 04:20:14;;;;;;;2.70;1.40;;;9.20;88.70;;;;;;4974206;28;20454;-75
2023/04/12 04:22:41;;;;;;;3.30;1.47;;;9.40;88.40;;;;;;4974166;28;20573;-75
2023/04/12 04:25:09;;;;;;;3.00;1.30;;;9.50;87.80;;;;;;4974320;28;20476;-75
2023/04/12 04:27:37;;;;;;;2.33;1.30;;;9.50;86.90;;;;;;4974197;28;20446;-74
2023/04/12 04:30:05;;;;;;;2.27;1.10;;;9.20;87.90;;;;;;4974229;28;20501;-75
2023/04/12 04:32:32;;;;;;;2.43;1.40;;;9.00;88.30;;;;;;4974060;28;20462;-75
2023/04/12 04:35:00;;;;;;;2.60;1.50;;;8.70;89.30;;;;;;4973817;28;21026;-75
2023/04/12 04:37:29;;;;;;;2.70;1.50;;;8.90;89.90;;;;;;4975597;28;20446;-75
2023/04/12 04:39:56;;;;;;;2.20;1.03;;;8.90;88.60;;;;;;4977689;28;20458;-75
2023/04/12 04:42:23;;;;;;;2.00;1.00;;;9.20;89.00;;;;;;4977511;28;20489;-75
2023/04/12 04:44:50;;;;;;;2.43;1.60;;;9.30;87.70;;;;;;4977826;28;20528;-74
2023/04/12 04:47:17;;;;;;;2.90;1.17;;;9.00;87.80;;;;;;4977524;28;20879;-72
2023/04/12 04:49:46;;;;;;;2.37;1.30;;;9.20;88.30;;;;;;4977490;28;20454;-75
2023/04/12 04:52:15;;;;;;;2.13;0.90;;;9.30;88.10;;;;;;4977497;28;20470;-74
2023/04/12 04:54:41;;;;;;;2.43;1.30;;;9.20;87.90;;;;;;4977507;28;20450;-73
2023/04/12 04:57:10;;;;;;;2.43;1.10;;;9.20;88.20;;;;;;4977484;28;20450;-74
2023/04/12 04:59:37;;;;;;;3.20;1.13;;;9.40;88.00;;;;;;4977902;28;20496;-73
2023/04/12 05:02:03;;;;;;;2.07;1.03;;;9.50;87.40;;;;;;4976835;28;20490;-74
2023/04/12 05:04:30;;;;;;;2.10;0.93;;;9.50;86.90;;;;;;4977226;28;20446;-74
2023/04/12 05:06:57;;;;;;;2.30;1.20;;;9.60;86.70;;;;;;4976819;28;20973;-74
2023/04/12 05:09:25;;;;;;;2.00;1.03;;;9.70;87.00;;;;;;4977145;28;20454;-74
2023/04/12 05:11:51;;;;;;;2.53;1.40;;;9.80;86.40;;;;;;4976912;28;20473;-74
2023/04/12 05:14:18;;;;;;;3.17;1.13;;;9.80;86.00;;;;;;4976762;28;20948;-74
2023/04/12 05:16:45;;;;;;;2.10;0.90;;;9.80;85.70;;;;;;4977002;28;20500;-74
2023/04/12 05:19:11;;;;;;;2.20;1.10;;;9.70;86.10;;;;;;4976976;28;20454;-74
2023/04/12 05:21:38;;;;;;;2.37;1.10;;;9.50;87.20;;;;;;4976527;28;20536;-74
2023/04/12 05:24:05;;;;;;;2.40;1.07;;;9.50;87.00;;;;;;4976901;28;20501;-74
2023/04/12 05:26:33;;;;;;;2.63;1.10;;;9.40;87.50;;;;;;4976817;28;20457;-74
2023/04/12 05:29:01;;;;;;;2.77;1.30;;;9.30;88.20;;;;;;4976775;28;20458;-75
2023/04/12 05:31:27;;;;;;;2.10;1.00;;;9.20;88.30;;;;;;4976708;28;20817;-75
2023/04/12 05:33:54;;;;;;;2.80;1.30;;;9.40;88.80;;;;;;4976677;28;20450;-73
2023/04/12 05:36:21;;;;;;;2.37;1.20;;;9.50;88.00;;;;;;4977198;28;20457;-75
2023/04/12 05:38:48;;;;;;;3.57;1.30;;;9.50;87.80;;;;;;4976683;28;20446;-75
2023/04/12 05:41:14;;;;;;;2.10;1.13;;;9.40;88.10;;;;;;4976671;28;20536;-75
2023/04/12 05:43:42;;;;;;;1.97;1.03;;;9.50;88.40;;;;;;4976552;28;20486;-75
2023/04/12 05:46:10;;;;;;;2.10;1.10;;;9.40;87.70;;;;;;4976513;28;20481;-75
2023/04/12 05:48:37;;;;;;;2.00;0.93;;;9.40;88.70;;;;;;4975708;28;20554;-74
2023/04/12 05:51:04;;;;;;;2.10;1.13;;;9.40;88.80;;;;;;4976380;28;20469;-75
2023/04/12 05:53:31;;;;;;;1.80;0.90;;;9.50;88.40;;;;;;4976265;28;20461;-75
2023/04/12 05:55:58;;;;;;;2.20;1.10;;;9.60;87.60;;;;;;4976276;28;20450;-74
2023/04/12 05:58:25;;;;;;;2.20;1.07;;;9.40;88.10;;;;;;4976223;28;20508;-74
2023/04/12 06:00:54;;;;;;;2.00;1.23;;;9.50;88.80;;;;;;4975956;28;20486;-74
2023/04/12 06:03:22;;;;;;;2.10;1.30;;;9.40;88.50;;;;;;4976090;28;20475;-75
2023/04/12 06:05:50;;;;;;;2.30;1.10;;;9.10;89.50;;;;;;4976070;28;20458;-74
2023/04/12 06:08:16;;;;;;;2.23;1.33;;;9.20;90.10;;;;;;4976014;28;20451;-74
2023/04/12 06:10:43;;;;;;;2.00;1.03;;;9.00;90.00;;;;;;4975515;28;21041;-75
2023/04/12 06:13:10;;;;;;;2.00;1.10;;;8.90;90.20;;;;;;4975614;28;20501;-76
2023/04/12 06:15:36;;;;;;;2.30;1.30;;;8.90;91.20;;;;;;4975910;28;20815;-75
2023/04/12 06:18:07;;;;;;;2.07;1.17;;;8.80;91.30;;;;;;4975943;28;20520;-75
2023/04/12 06:20:33;;;;;;;2.80;1.30;;;8.90;91.90;;;;;;4975773;28;20458;-75
2023/04/12 06:23:00;;;;;;;2.27;1.23;;;9.00;90.70;;;;;;4975776;28;20828;-75
2023/04/12 06:25:26;;;;;;;2.30;1.33;;;9.00;91.30;;;;;;4975697;28;20450;-75
2023/04/12 06:27:53;;;;;;;2.40;1.20;;;9.00;90.70;;;;;;4975682;28;20447;-75
2023/04/12 06:30:20;;;;;;;1.90;1.00;;;9.00;91.20;;;;;;4975608;28;20454;-74
2023/04/12 06:32:47;;;;;;;1.90;1.03;;;9.20;90.60;;;;;;4975297;28;20928;-75
2023/04/12 06:35:15;;;;;;;3.17;1.67;;;9.40;90.60;;;;;;4975553;28;20489;-74
2023/04/12 06:37:42;;;;;;;2.60;1.70;;;9.40;90.00;;;;;;4975470;28;20461;-75
2023/04/12 06:40:11;;;;;;;2.30;1.10;;;9.40;89.80;;;;;;4975137;28;20972;-75
2023/04/12 06:42:38;;;;;;;2.07;1.20;;;9.60;89.60;;;;;;4975297;28;20581;-75
2023/04/12 06:45:06;;;;;;;2.27;1.37;;;9.70;88.90;;;;;;4975106;28;20944;-75
2023/04/12 06:47:32;;;;;;;2.70;1.30;;;9.80;88.80;;;;;;4975095;28;20944;-75
2023/04/12 06:49:59;;;;;;;2.80;2.10;;;9.60;89.10;;;;;;4975022;28;20998;-75
2023/04/12 06:52:27;;;;;;;2.83;1.60;;;9.60;90.10;;;;;;4975059;28;20462;-73
2023/04/12 06:54:55;;;;;;;2.30;1.40;;;9.60;89.70;;;;;;4974902;28;20508;-76
2023/04/12 06:57:22;;;;;;;2.13;1.23;;;9.50;89.70;;;;;;4975245;28;20458;-75
2023/04/12 06:59:48;;;;;;;2.30;1.30;;;9.50;90.00;;;;;;4975144;28;20454;-73
2023/04/12 07:02:15;;;;;;;2.20;1.47;;;9.60;89.80;;;;;;4974926;28;20478;-75
2023/04/12 07:04:42;;;;;;;2.17;1.20;;;9.60;90.50;;;;;;4975133;28;20465;-74
2023/04/12 07:07:09;;;;;;;2.90;1.57;;;9.50;90.20;;;;;;4975139;28;20446;-75
2023/04/12 07:09:37;;;;;;;2.63;1.57;;;9.70;90.20;;;;;;4974913;28;20456;-75
2023/04/12 07:12:04;;;;;;;2.10;1.30;;;9.60;89.70;;;;;;4975060;28;20529;-76
2023/04/12 07:14:31;;;;;;;2.20;1.37;;;9.50;90.80;;;;;;4974918;28;20505;-75
2023/04/12 07:16:57;;;;;;;2.60;1.30;;;9.60;90.90;;;;;;4974959;28;20477;-75
2023/04/12 07:19:24;;;;;;;2.63;1.43;;;9.50;90.50;;;;;;4975152;28;20450;-74
2023/04/12 07:21:51;;;;;;;2.00;1.00;;;9.50;91.00;;;;;;4974879;28;20466;-73
2023/04/12 07:24:17;;;;;;;2.40;1.40;;;9.50;91.50;;;;;;4974829;28;20481;-72
2023/04/12 07:26:45;;;;;;;2.30;1.20;;;9.60;91.50;;;;;;4974784;28;20450;-74
2023/04/12 07:29:12;;;;;;;2.30;1.33;;;9.70;90.90;;;;;;4975059;28;20450;-75
2023/04/12 07:31:39;;;;;;;2.50;1.40;;;9.60;91.30;;;;;;4974808;28;20473;-74
2023/04/12 07:34:05;;;;;;;3.00;1.40;;;9.70;91.30;;;;;;4974845;28;20453;-74
2023/04/12 07:36:32;;;;;;;2.10;1.10;;;9.70;91.60;;;;;;4974696;28;20453;-74
2023/04/12 07:38:59;;;;;;;2.00;1.10;;;9.90;90.70;;;;;;4974656;28;20458;-73
2023/04/12 07:41:25;;;;;;;2.40;1.30;;;10.00;90.30;;;;;;4974361;28;20470;-75
2023/04/12 07:43:53;;;;;;;2.20;1.00;;;10.20;90.10;;;;;;4974365;28;20518;-75
2023/04/12 07:46:20;;;;;;;2.10;1.33;;;10.30;89.70;;;;;;4974444;28;20504;-75
2023/04/12 07:48:47;;;;;;;2.57;1.20;;;10.00;89.20;;;;;;4974512;28;20458;-74
2023/04/12 07:51:13;;;;;;;2.70;1.43;;;9.90;91.00;;;;;;4975172;28;20470;-75
2023/04/12 07:53:40;;;;;;;2.33;1.50;;;9.90;91.00;;;;;;4974318;28;20857;-73
2023/04/12 07:56:07;;;;;;;3.03;1.50;;;9.90;91.40;;;;;;4974446;28;20454;-75
2023/04/12 07:58:34;;;;;;;2.40;1.57;;;9.80;91.50;;;;;;4974080;28;20944;-75
2023/04/12 08:01:02;;;;;;;2.40;1.13;;;9.90;92.20;;;;;;4974288;28;20478;-75
2023/04/12 08:03:29;;;;;;;2.10;1.30;;;10.10;91.40;;;;;;4974585;28;20979;-75
2023/04/12 08:05:56;;;;;;;2.10;1.20;;;10.30;90.90;;;;;;4974991;28;20571;-75
2023/04/12 08:08:22;;;;;;;2.00;1.07;;;10.50;89.70;;;;;;4974662;28;20446;-75
2023/04/12 08:10:51;;;;;;;2.10;1.20;;;10.50;89.20;;;;;;4974793;28;20474;-75
2023/04/12 08:13:18;;;;;;;2.13;1.10;;;10.30;89.40;;;;;;4977384;28;20482;-75
2023/04/12 08:15:46;;;;;;;2.47;1.30;;;10.50;90.50;;;;;;4978577;28;20472;-75
2023/04/12 08:18:14;;;;;;;2.20;1.20;;;10.40;90.40;;;;;;4978705;28;20454;-75
2023/04/12 08:20:42;;;;;;;2.20;1.37;;;10.70;90.20;;;;;;4978045;28;20458;-76
2023/04/12 08:23:09;;;;;;;2.13;1.20;;;10.50;90.00;;;;;;4978097;28;20561;-75
2023/04/12 08:25:36;;;;;;;2.90;1.30;;;10.40;90.50;;;;;;4977797;28;20447;-75
2023/04/12 08:28:03;;;;;;;2.30;1.30;;;10.60;90.60;;;;;;4977990;28;20450;-75
2023/04/12 08:30:30;;;;;;;2.00;1.27;;;10.80;89.70;;;;;;4977889;28;20541;-76
2023/04/12 08:32:57;;;;;;;2.43;1.27;;;10.80;90.00;;;;;;4978546;28;20501;-76
2023/04/12 08:35:25;;;;;;;2.30;1.10;;;11.00;89.60;;;;;;4977804;28;20457;-75
2023/04/12 08:37:52;;;;;;;2.70;1.10;;;11.00;89.10;;;;;;4977829;28;20449;-75
2023/04/12 08:40:20;;;;;;;2.53;1.37;;;11.00;89.50;;;;;;4977842;28;20446;-77
2023/04/12 08:42:47;;;;;;;2.00;0.90;;;11.10;89.50;;;;;;4977662;28;20471;-76
2023/04/12 08:45:14;;;;;;;2.90;1.40;;;11.30;89.80;;;;;;4977790;28;20485;-76
2023/04/12 08:47:43;;;;;;;2.20;1.20;;;11.40;88.60;;;;;;4977906;28;20461;-76
2023/04/12 08:50:12;;;;;;;2.30;1.40;;;11.30;89.60;;;;;;4977741;28;20445;-77
2023/04/12 08:52:41;;;;;;;2.43;1.30;;;11.30;89.00;;;;;;4977466;28;20524;-75
2023/04/12 08:55:09;;;;;;;2.40;1.10;;;11.20;89.90;;;;;;4977728;28;20454;-75
2023/04/12 08:57:39;;;;;;;2.10;1.20;;;11.20;88.60;;;;;;4977561;28;20541;-75
2023/04/12 09:00:08;;;;;;;2.20;1.10;;;11.20;88.60;;;;;;4977717;28;20440;-76
2023/04/12 09:02:36;;;;;;;2.83;0.97;;;11.30;88.20;;;;;;4976996;28;20532;-75
2023/04/12 09:05:02;;;;;;;2.30;1.20;;;11.20;87.70;;;;;;4978284;28;20809;-76
2023/04/12 09:07:30;;;;;;;2.30;1.00;;;11.10;88.60;;;;;;4977340;28;20446;-77
2023/04/12 09:09:58;;;;;;;2.03;1.10;;;10.90;88.40;;;;;;4977217;28;20549;-76
2023/04/12 09:12:26;;;;;;;2.37;1.40;;;10.80;89.50;;;;;;4977524;28;20528;-76
2023/04/12 09:15:07;;;;;;;2.27;1.10;;;10.80;89.40;;;;;;4977404;28;20821;-75
2023/04/12 09:17:37;;;;;;;2.63;1.10;;;10.90;90.30;;;;;;4977276;28;20435;-76
2023/04/12 09:20:22;;;;;;;2.03;1.00;;;11.10;90.10;;;;;;4976944;28;20904;-77
2023/04/12 09:22:49;;;;;;;2.40;1.20;;;11.00;89.60;;;;;;4976547;28;20439;-76
2023/04/12 09:25:17;;;;;;;2.63;1.50;;;11.00;89.60;;;;;;4976094;28;20450;-76
2023/04/12 09:27:47;;;;;;;2.40;1.50;;;11.00;89.80;;;;;;4976834;28;20455;-76
2023/04/12 09:30:15;;;;;;;2.00;1.10;;;11.10;90.20;;;;;;4976801;28;20453;-76
2023/04/12 09:32:42;;;;;;;2.40;1.20;;;11.10;90.30;;;;;;4976377;28;20891;-76
2023/04/12 09:35:09;;;;;;;3.10;1.10;;;11.20;90.70;;;;;;4976953;28;20454;-76
2023/04/12 09:37:35;;;;;;;2.20;1.20;;;11.30;89.10;;;;;;4976910;28;20446;-77
2023/04/12 09:40:04;;;;;;;2.10;1.00;;;11.10;89.00;;;;;;4976836;28;20505;-76
2023/04/12 09:42:33;;;;;;;2.70;1.10;;;11.00;89.30;;;;;;4976682;28;20506;-75
2023/04/12 09:45:18;;;;;;;5.97;1.50;;;11.00;90.00;;;;;;4976781;28;20490;-76
2023/04/12 09:47:44;;;;;;;3.40;1.10;;;11.20;89.60;;;;;;4976668;28;20435;-76
2023/04/12 09:50:20;;;;;;;2.43;0.97;;;11.40;89.70;;;;;;4976417;28;20873;-74
2023/04/12 09:52:48;;;;;;;2.33;1.27;;;11.50;89.60;;;;;;4976256;28;20501;-73
2023/04/12 09:55:15;;;;;;;2.00;1.00;;;11.50;88.20;;;;;;4976276;28;20442;-74
2023/04/12 09:57:44;;;;;;;2.77;1.37;;;11.60;88.10;;;;;;4976300;28;20454;-75
2023/04/12 10:00:16;;;;;;;2.23;1.20;;;11.70;88.50;;;;;;4976025;28;20931;-75
2023/04/12 10:02:44;;;;;;;3.20;1.30;;;11.60;87.70;;;;;;4975760;28;20522;-74
2023/04/12 10:05:12;;;;;;;2.53;1.20;;;11.60;86.60;;;;;;4976095;28;20545;-75
2023/04/12 10:07:40;;;;;;;2.00;1.03;;;11.70;87.00;;;;;;4976264;28;20460;-75
2023/04/12 10:10:08;;;;;;;3.30;1.27;;;11.70;87.00;;;;;;4975988;28;20450;-76
2023/04/12 10:12:36;;;;;;;2.47;1.33;;;11.80;87.70;;;;;;4975934;28;20545;-75
2023/04/12 10:15:11;;;;;;;3.03;1.30;;;12.00;87.80;;;;;;4975931;28;20452;-75
2023/04/12 10:17:41;;;;;;;3.70;2.53;;;12.10;86.10;;;;;;5095484;23;20882;-74
2023/04/12 10:20:09;;;;;;;2.47;1.20;;;12.20;86.60;;;;;;4976742;28;20464;-73
2023/04/12 10:22:36;;;;;;;3.47;1.90;;;12.30;86.20;;;;;;4976387;28;20565;-74
2023/04/12 10:25:02;;;;;;;1.80;1.00;;;12.40;85.90;;;;;;4976785;28;20490;-77
2023/04/12 10:27:29;;;;;;;3.70;1.20;;;12.40;87.00;;;;;;4976301;28;20478;-74
2023/04/12 10:30:21;;;;;;;2.60;1.23;;;12.50;86.80;;;;;;4976198;28;20450;-74
2023/04/12 10:32:49;;;;;;;2.77;1.20;;;12.40;85.90;;;;;;4976224;28;20833;-74
2023/04/12 10:35:16;;;;;;;2.30;1.20;;;12.50;87.10;;;;;;4975698;28;20541;-74
2023/04/12 10:37:59;;;;;;;2.27;1.10;;;12.60;87.00;;;;;;4975978;28;20505;-78
2023/04/12 10:40:26;;;;;;;2.17;0.97;;;12.60;85.80;;;;;;4976708;28;20532;-79
2023/04/12 10:43:26;;;;;;;4.20;1.03;;;12.70;84.50;;;;;;4977821;28;20461;-80
2023/04/12 10:45:55;;;;;;;2.53;1.03;;;12.90;86.50;;;;;;4976477;28;20466;-78
2023/04/12 10:48:32;;;;;;;1.97;1.00;;;13.10;85.10;;;;;;4979849;28;20447;-79
2023/04/12 10:51:13;;;;;;;2.00;0.90;;;13.10;83.30;;;;;;4978650;28;20450;-78
2023/04/12 10:53:40;;;;;;;2.50;1.07;;;12.80;83.20;;;;;;4977325;28;20427;-79
2023/04/12 10:56:38;;;;;;;3.03;1.17;;;12.90;83.60;;;;;;4977167;28;20470;-77
2023/04/12 10:59:05;;;;;;;3.37;1.30;;;12.90;83.50;;;;;;4975948;28;20496;-76
2023/04/12 11:01:34;;;;;;;2.27;1.20;;;13.00;86.20;;;;;;4975682;28;20446;-76
2023/04/12 11:04:18;;;;;;;3.00;1.27;;;13.10;84.20;;;;;;4975750;28;20482;-76
2023/04/12 11:06:50;;;;;;;1.90;0.90;;;13.20;82.80;;;;;;4975770;28;20480;-76
2023/04/12 11:09:21;;;;;;;1.70;0.70;;;13.30;83.20;;;;;;4975447;28;20805;-76
2023/04/12 11:11:49;;;;;;;1.80;0.83;;;13.40;83.00;;;;;;4975553;28;20439;-76
2023/04/12 11:14:16;;;;;;;2.00;0.90;;;13.40;80.20;;;;;;4975240;28;20947;-77
2023/04/12 11:17:27;;;;;;;2.40;0.87;;;13.60;81.10;;;;;;4975451;28;20538;-77
2023/04/12 11:19:56;;;;;;;2.00;1.00;;;13.80;80.30;;;;;;4916014;29;20524;-77
2023/04/12 11:22:26;;;;;;;1.80;0.90;;;13.90;80.60;;;;;;4916181;29;20449;-77
2023/04/12 11:24:53;;;;;;;2.13;0.90;;;14.00;79.70;;;;;;4948273;28;20490;-77
2023/04/12 11:27:21;;;;;;;2.33;0.70;;;14.20;79.10;;;;;;4975313;28;20474;-75
2023/04/12 11:29:50;;;;;;;1.97;0.90;;;14.20;78.50;;;;;;4975592;28;20446;-77
2023/04/12 11:32:17;;;;;;;1.80;0.80;;;14.00;79.00;;;;;;4975584;28;20481;-77
2023/04/12 11:34:47;;;;;;;2.03;0.80;;;14.10;77.10;;;;;;4975125;28;20455;-75
2023/04/12 11:37:14;;;;;;;2.10;0.83;;;13.80;77.60;;;;;;4975051;28;20889;-75
2023/04/12 11:39:42;;;;;;;1.63;0.70;;;13.80;78.10;;;;;;4975568;28;20573;-77
2023/04/12 11:42:14;;;;;;;1.80;0.80;;;13.90;78.70;;;;;;4975215;28;20458;-76
2023/04/12 11:44:42;;;;;;;2.93;1.17;;;13.90;78.10;;;;;;4975420;28;20577;-77
2023/04/12 11:47:16;;;;;;;1.80;0.90;;;14.00;77.90;;;;;;4974610;28;20549;-77
2023/04/12 11:49:46;;;;;;;2.20;0.80;;;14.20;77.00;;;;;;4975270;28;20422;-77
2023/04/12 11:52:14;;;;;;;2.00;0.87;;;14.40;78.70;;;;;;4975067;28;20458;-77
2023/04/12 11:54:45;;;;;;;1.90;0.80;;;14.60;76.20;;;;;;4974936;28;20940;-78
2023/04/12 11:57:13;;;;;;;2.10;0.90;;;14.80;76.40;;;;;;4975273;28;20470;-79
2023/04/12 11:59:42;;;;;;;1.80;0.80;;;14.70;75.60;;;;;;4976196;28;20450;-78
2023/04/12 12:02:09;;;;;;;1.70;0.70;;;14.80;75.60;;;;;;4976590;28;20450;-78
2023/04/12 12:04:37;;;;;;;1.80;0.80;;;14.70;76.50;;;;;;4976218;28;20853;-78
2023/04/12 12:07:06;;;;;;;1.80;0.80;;;14.50;74.30;;;;;;4975526;28;20921;-76
2023/04/12 12:09:33;;;;;;;2.00;0.80;;;14.20;75.70;;;;;;4975221;28;20478;-77
2023/04/12 12:12:00;;;;;;;1.90;1.10;;;14.00;76.70;;;;;;4974663;28;21008;-77
2023/04/12 12:14:28;;;;;;;2.10;0.80;;;14.00;76.40;;;;;;4975942;28;20458;-78
2023/04/12 12:16:58;;;;;;;1.80;0.70;;;14.00;77.50;;;;;;4974966;28;20486;-77
2023/04/12 12:19:30;;;;;;;2.97;0.83;;;14.20;77.80;;;;;;4974927;28;20450;-76
2023/04/12 12:22:11;;;;;;;1.80;0.80;;;14.50;76.50;;;;;;4975008;28;20442;-77
2023/04/12 12:24:38;;;;;;;2.50;0.90;;;14.60;75.40;;;;;;4975343;28;20993;-78
2023/04/12 12:27:05;;;;;;;3.80;0.90;;;14.70;74.80;;;;;;4974827;28;21054;-76
2023/04/12 12:29:36;;;;;;;3.30;0.80;;;14.50;75.60;;;;;;4975129;28;20496;-74
2023/04/12 12:32:09;;;;;;;2.43;0.90;;;14.40;75.60;;;;;;4974678;28;20478;-76
2023/04/12 12:34:36;;;;;;;2.37;0.87;;;14.60;75.30;;;;;;4974595;28;20986;-75
2023/04/12 12:37:02;;;;;;;1.80;0.80;;;14.70;74.10;;;;;;4974604;28;20481;-73
2023/04/12 12:39:30;;;;;;;2.00;0.80;;;14.70;74.00;;;;;;4974946;28;20454;-73
2023/04/12 12:41:58;;;;;;;1.90;0.70;;;14.80;74.80;;;;;;4976398;28;20450;-76
2023/04/12 12:44:25;;;;;;;1.77;0.70;;;14.90;73.60;;;;;;4975714;28;20528;-75
2023/04/12 12:46:51;;;;;;;2.17;0.80;;;15.10;73.40;;;;;;4974797;28;20477;-77
2023/04/12 12:49:18;;;;;;;3.03;0.80;;;15.20;73.50;;;;;;4974777;28;20944;-75
2023/04/12 12:51:45;;;;;;;1.70;0.70;;;15.20;72.20;;;;;;4975393;28;20454;-76
2023/04/12 12:54:11;;;;;;;1.73;0.70;;;15.10;72.30;;;;;;4975921;28;20509;-76
2023/04/12 12:56:39;;;;;;;1.80;0.77;;;15.10;72.90;;;;;;4975304;28;20553;-75
2023/04/12 12:59:06;;;;;;;1.90;0.90;;;15.00;72.80;;;;;;4977239;28;20516;-76
2023/04/12 13:01:33;;;;;;;2.00;0.83;;;14.90;73.00;;;;;;4978930;28;20883;-74
2023/04/12 13:03:59;;;;;;;2.10;0.80;;;14.60;73.00;;;;;;4979303;28;20454;-74
2023/04/12 13:06:27;;;;;;;1.80;0.80;;;14.70;73.40;;;;;;4977853;28;20477;-74
2023/04/12 13:08:54;;;;;;;1.90;0.80;;;15.00;72.80;;;;;;4977690;28;20568;-76
2023/04/12 13:11:21;;;;;;;2.00;0.90;;;15.20;71.50;;;;;;4977600;28;20493;-75
2023/04/12 13:13:49;;;;;;;1.90;0.80;;;15.20;72.00;;;;;;4977426;28;20987;-76
2023/04/12 13:16:16;;;;;;;2.70;0.90;;;15.10;72.40;;;;;;4976988;28;20491;-74
2023/04/12 13:18:44;;;;;;;1.60;0.70;;;15.10;71.60;;;;;;4977692;28;20536;-75
2023/04/12 13:21:10;;;;;;;1.90;0.73;;;15.00;72.30;;;;;;4977555;28;20450;-76
2023/04/12 13:23:37;;;;;;;2.83;0.73;;;14.80;72.50;;;;;;4977245;28;20454;-75
2023/04/12 13:26:04;;;;;;;2.00;0.70;;;14.90;72.50;;;;;;4977568;28;20909;-75
2023/04/12 13:28:31;;;;;;;1.90;0.70;;;14.80;72.80;;;;;;4978148;28;20454;-76
2023/04/12 13:31:00;;;;;;;1.93;0.80;;;14.50;74.00;;;;;;4977961;28;20541;-76
2023/04/12 13:33:26;;;;;;;2.50;1.00;;;14.60;74.20;;;;;;4977330;28;21014;-73
2023/04/12 13:35:53;;;;;;;2.10;0.80;;;14.80;73.70;;;;;;4977325;28;20475;-75
2023/04/12 13:38:20;;;;;;;1.70;0.80;;;14.90;74.10;;;;;;4977229;28;20454;-73
2023/04/12 13:40:46;;;;;;;2.00;0.93;;;15.00;72.40;;;;;;4977034;28;20462;-74
2023/04/12 13:43:13;;;;;;;1.77;0.80;;;15.20;73.00;;;;;;4977068;28;20512;-75
2023/04/12 13:45:40;;;;;;;1.67;0.70;;;15.30;71.00;;;;;;4976297;28;21062;-74
2023/04/12 13:48:08;;;;;;;1.70;0.70;;;15.30;72.00;;;;;;4978064;28;20458;-76
2023/04/12 13:50:35;;;;;;;1.90;0.90;;;15.30;71.10;;;;;;4977602;28;20974;-76
2023/04/12 13:53:01;;;;;;;1.80;0.70;;;15.60;71.10;;;;;;4977589;28;21014;-76
2023/04/12 13:55:28;;;;;;;1.67;0.67;;;15.50;70.90;;;;;;4978267;28;21006;-78
2023/04/12 13:57:55;;;;;;;1.90;0.80;;;15.20;71.20;;;;;;4978843;28;20454;-78
2023/04/12 14:00:22;;;;;;;3.07;0.80;;;15.10;72.00;;;;;;4978536;28;20500;-77
2023/04/12 14:02:49;;;;;;;2.40;0.77;;;15.10;71.90;;;;;;4977895;28;20453;-78
2023/04/12 14:05:17;;;;;;;1.70;0.70;;;15.10;72.50;;;;;;4978374;28;20490;-78
2023/04/12 14:07:44;;;;;;;1.70;0.70;;;15.20;71.80;;;;;;4978912;28;20466;-78
2023/04/12 14:10:11;;;;;;;1.70;0.70;;;14.90;71.40;;;;;;4977088;28;20517;-78
2023/04/12 14:12:37;;;;;;;1.60;0.60;;;14.60;72.70;;;;;;4978212;28;20818;-78
2023/04/12 14:15:05;;;;;;;1.80;0.83;;;14.70;73.00;;;;;;4977561;28;20446;-78
2023/04/12 14:17:32;;;;;;;2.93;0.70;;;14.90;72.50;;;;;;4977438;28;20509;-78
2023/04/12 14:19:59;;;;;;;1.60;0.70;;;15.30;72.40;;;;;;4978025;28;20529;-78
2023/04/12 14:22:28;;;;;;;2.03;0.90;;;15.50;70.70;;;;;;4975836;28;20465;-77
2023/04/12 14:24:54;;;;;;;1.80;0.70;;;15.80;70.30;;;;;;4976375;28;20482;-78
2023/04/12 14:27:21;;;;;;;2.63;0.83;;;15.80;69.70;;;;;;4975767;28;20462;-77
2023/04/12 14:29:48;;;;;;;2.00;0.83;;;15.70;70.00;;;;;;4975858;28;20450;-77
2023/04/12 14:32:15;;;;;;;2.67;0.90;;;15.70;70.10;;;;;;4975790;28;20509;-77
2023/04/12 14:34:42;;;;;;;1.80;0.77;;;15.50;69.80;;;;;;4975615;28;20457;-77
2023/04/12 14:37:09;;;;;;;2.00;0.70;;;15.40;70.70;;;;;;4975321;28;20922;-78
2023/04/12 14:39:37;;;;;;;2.33;0.90;;;15.50;70.70;;;;;;4976647;28;20458;-76
2023/04/12 14:42:04;;;;;;;1.87;0.73;;;15.50;71.40;;;;;;4976709;28;20451;-77
2023/04/12 14:44:31;;;;;;;1.67;0.73;;;15.60;69.60;;;;;;4976772;28;20457;-77
2023/04/12 14:46:58;;;;;;;1.80;1.00;;;15.60;70.00;;;;;;4976958;28;20476;-76
2023/04/12 14:49:25;;;;;;;1.77;0.67;;;15.70;69.60;;;;;;4976156;28;20457;-76
2023/04/12 14:51:51;;;;;;;1.90;1.00;;;15.70;70.00;;;;;;4976251;28;20461;-73
2023/04/12 14:54:18;;;;;;;1.70;0.60;;;15.60;70.20;;;;;;4975898;28;20442;-74
2023/04/12 14:56:46;;;;;;;2.40;0.80;;;15.50;69.70;;;;;;4975905;28;20462;-75
2023/04/12 14:59:13;;;;;;;1.60;0.60;;;15.40;71.20;;;;;;4976038;28;20482;-75
2023/04/12 15:01:41;;;;;;;1.77;0.70;;;15.30;70.60;;;;;;4977196;28;20454;-78
2023/04/12 15:04:07;;;;;;;1.67;0.80;;;15.20;71.30;;;;;;4975493;28;20437;-76
2023/04/12 15:06:36;;;;;;;2.37;0.90;;;15.20;71.50;;;;;;4975414;28;20494;-76
2023/04/12 15:09:03;;;;;;;1.77;0.73;;;15.10;70.80;;;;;;4975840;28;20458;-78
2023/04/12 15:11:34;;;;;;;2.30;1.40;;;14.90;71.70;;;;;;4975464;28;20828;-75
2023/04/12 15:14:04;;;;;;;1.60;0.70;;;14.80;71.50;;;;;;4975655;28;20438;-75
2023/04/12 15:16:33;;;;;;;2.20;0.83;;;14.80;72.30;;;;;;4975003;28;20651;-76
2023/04/12 15:19:00;;;;;;;2.00;0.80;;;14.90;72.70;;;;;;4975419;28;20462;-75
2023/04/12 15:21:27;;;;;;;2.00;0.80;;;14.80;73.50;;;;;;4974075;28;20835;-75
2023/04/12 15:23:54;;;;;;;2.30;0.70;;;14.80;73.20;;;;;;4975454;28;20549;-75
2023/04/12 15:26:21;;;;;;;2.47;0.90;;;14.50;75.20;;;;;;4975877;28;20485;-75
2023/04/12 15:28:48;;;;;;;1.80;0.70;;;13.90;76.30;;;;;;4975366;28;20446;-75
2023/04/12 15:31:16;;;;;;;2.00;0.70;;;13.50;78.00;;;;;;4975397;28;20446;-74
2023/04/12 15:33:43;;;;;;;1.70;0.70;;;13.20;78.70;;;;;;4975174;28;20450;-74
2023/04/12 15:36:09;;;;;;;2.93;0.80;;;13.00;78.60;;;;;;4975052;28;20502;-74
2023/04/12 15:38:41;;;;;;;1.70;0.70;;;12.70;79.50;;;;;;4975289;28;20458;-74
2023/04/12 15:41:08;;;;;;;1.80;0.70;;;12.40;80.50;;;;;;4975126;28;20466;-74
2023/04/12 15:43:35;;;;;;;1.60;0.60;;;12.20;80.80;;;;;;4975086;28;20473;-74
2023/04/12 15:46:01;;;;;;;1.57;0.60;;;12.10;81.30;;;;;;4974789;28;20497;-75
2023/04/12 15:48:30;;;;;;;2.30;0.70;;;12.10;81.80;;;;;;4974580;28;20460;-75
2023/04/12 15:50:57;;;;;;;1.60;0.60;;;12.10;81.40;;;;;;4974703;28;20454;-75
2023/04/12 15:53:26;;;;;;;1.60;0.60;;;12.10;81.60;;;;;;4974872;28;20453;-74
2023/04/12 15:55:53;;;;;;;1.60;0.60;;;12.00;81.80;;;;;;4974608;28;20470;-75
2023/04/12 15:58:20;;;;;;;1.90;0.60;;;12.20;81.90;;;;;;4974664;28;20451;-74
2023/04/12 16:00:48;;;;;;;1.60;0.60;;;12.40;82.10;;;;;;4974648;28;20451;-75
2023/04/12 16:03:18;;;;;;;1.60;0.60;;;12.40;80.60;;;;;;4974469;28;20458;-75
2023/04/12 16:05:46;;;;;;;1.63;0.60;;;12.40;81.40;;;;;;4974419;28;20532;-75
2023/04/12 16:08:14;;;;;;;1.60;0.60;;;12.50;81.20;;;;;;4974697;28;20456;-75
2023/04/12 16:10:40;;;;;;;1.60;0.60;;;12.80;80.70;;;;;;4974452;28;20446;-75
2023/04/12 16:13:09;;;;;;;1.70;0.70;;;13.00;80.00;;;;;;4974375;28;20496;-75
2023/04/12 16:15:36;;;;;;;1.70;0.60;;;12.90;79.20;;;;;;4974214;28;20818;-75
2023/04/12 16:18:03;;;;;;;1.80;0.70;;;12.90;79.70;;;;;;4974663;28;20467;-75
2023/04/12 16:20:30;;;;;;;1.60;0.70;;;12.80;79.30;;;;;;4974159;28;20454;-75
2023/04/12 16:22:58;;;;;;;1.70;0.70;;;12.60;80.30;;;;;;4974248;28;20482;-74
2023/04/12 16:25:27;;;;;;;1.70;0.60;;;12.60;80.50;;;;;;4974020;28;20532;-75
2023/04/12 16:27:53;;;;;;;1.63;0.60;;;12.60;80.60;;;;;;4974162;28;20466;-74
2023/04/12 16:30:21;;;;;;;1.60;0.60;;;12.50;80.90;;;;;;4973855;28;20940;-75
2023/04/12 16:32:49;;;;;;;1.60;0.60;;;12.40;80.30;;;;;;4974596;28;20457;-75
2023/04/12 16:35:16;;;;;;;2.13;0.70;;;12.50;80.50;;;;;;4977506;28;20857;-75
2023/04/12 16:37:44;;;;;;;1.70;0.70;;;12.70;80.10;;;;;;4977404;28;20894;-76
2023/04/12 16:40:13;;;;;;;1.70;0.60;;;12.70;79.90;;;;;;4977754;28;20446;-76
2023/04/12 16:42:40;;;;;;;1.57;0.50;;;12.70;79.60;;;;;;4977666;28;20458;-75
2023/04/12 16:45:08;;;;;;;1.60;0.60;;;12.60;80.00;;;;;;4977671;28;20544;-75
2023/04/12 16:47:35;;;;;;;1.70;0.70;;;12.70;80.80;;;;;;4977397;28;20552;-75
2023/04/12 16:50:02;;;;;;;1.57;0.57;;;12.80;81.00;;;;;;4977377;28;20450;-75
2023/04/12 16:52:29;;;;;;;2.00;0.90;;;12.80;78.90;;;;;;4977419;28;20454;-74
2023/04/12 16:54:56;;;;;;;1.73;0.77;;;12.90;79.60;;;;;;4977396;28;20455;-76